Time;durP1;ratioP1;P1;durP2;ratioP2;P2;SDS_P1;SDS_P2;PMS_P1;PMS_P2;Temp;Humidity;BMP_temperature;BMP_pressure;BME280_temperature;BME280_humidity;BME280_pressure;Samples;Min_cycle;Max_cycle;Signal;HPM_P1;HPM_P2
2023/07/20 00:00:53;;;;;;;0.47;0.45;;;24.40;75.80;;;;;;6293258;28;20043;-57
2023/07/20 00:03:58;;;;;;;0.52;0.32;;;24.10;72.00;;;;;;6294847;28;20036;-56
2023/07/20 00:07:00;;;;;;;0.43;0.30;;;;;;;;;;6295908;28;20044;-56
2023/07/20 00:10:02;;;;;;;0.50;0.30;;;;;;;;;;6272836;28;20040;-57
2023/07/20 00:13:04;;;;;;;0.57;0.32;;;;;;;;;;6284568;28;20115;-57
2023/07/20 00:16:08;;;;;;;0.45;0.35;;;24.20;75.40;;;;;;6286745;28;20455;-56
2023/07/20 00:19:10;;;;;;;0.40;0.22;;;;;;;;;;6296577;28;20150;-57
2023/07/20 00:22:13;;;;;;;0.30;0.28;;;;;;;;;;6293040;28;20044;-57
2023/07/20 00:25:15;;;;;;;0.45;0.45;;;;;;;;;;6291023;28;20085;-57
2023/07/20 00:28:17;;;;;;;0.30;0.30;;;;;;;;;;6289190;28;20346;-57
2023/07/20 00:31:19;;;;;;;0.32;0.30;;;24.40;77.40;;;;;;6281728;28;20071;-57
2023/07/20 00:34:24;;;;;;;0.95;0.30;;;;;;;;;;6287985;28;20047;-57
2023/07/20 00:37:25;;;;;;;0.32;0.30;;;;;;;;;;6290240;28;20495;-57
2023/07/20 00:40:27;;;;;;;0.45;0.20;;;;;;;;;;6290240;28;20601;-57
2023/07/20 00:43:29;;;;;;;0.63;0.43;;;;;;;;;;6293262;28;20043;-58
2023/07/20 00:46:32;;;;;;;0.35;0.30;;;24.10;76.50;;;;;;6294680;28;20048;-57
2023/07/20 00:49:35;;;;;;;0.82;0.30;;;;;;;;;;6244337;28;20119;-58
2023/07/20 00:52:39;;;;;;;0.45;0.30;;;;;;;;;;6294443;28;20418;-57
2023/07/20 00:55:41;;;;;;;0.80;0.40;;;;;;;;;;6288172;28;20461;-57
2023/07/20 00:58:45;;;;;;;0.60;0.30;;;;;;;;;;6292759;28;20032;-58
2023/07/20 01:01:47;;;;;;;0.45;0.30;;;24.10;77.30;;;;;;6295480;28;20036;-57
2023/07/20 01:04:52;;;;;;;0.25;0.20;;;;;;;;;;6293186;28;20043;-58
2023/07/20 01:07:58;;;;;;;0.20;0.20;;;24.10;77.50;;;;;;6292845;28;20071;-58
2023/07/20 01:11:10;;;;;;;0.75;0.20;;;24.00;77.40;;;;;;6274989;28;20109;-57
2023/07/20 01:14:14;;;;;;;0.20;0.20;;;24.00;77.60;;;;;;6277158;28;20406;-58
2023/07/20 01:17:16;;;;;;;0.68;0.30;;;24.20;76.70;;;;;;6292512;28;20028;-57
2023/07/20 01:20:22;;;;;;;0.30;0.20;;;24.10;77.30;;;;;;6293768;28;20032;-58
2023/07/20 01:23:25;;;;;;;0.22;0.22;;;;;;;;;;6312494;22;20543;31
2023/07/20 01:26:53;;;;;;;0.40;0.32;;;24.10;78.00;;;;;;6263187;28;20064;-46
2023/07/20 01:30:13;;;;;;;0.30;0.30;;;24.10;77.40;;;;;;6255523;28;20040;-47
2023/07/20 01:33:21;;;;;;;0.30;0.20;;;24.10;77.30;;;;;;6269016;28;20522;-43
2023/07/20 01:36:24;;;;;;;0.68;0.30;;;24.00;77.00;;;;;;6268911;28;20045;-45
2023/07/20 01:39:27;;;;;;;0.38;0.30;;;24.10;77.80;;;;;;6262139;28;20037;-42
2023/07/20 01:42:29;;;;;;;0.25;0.25;;;;;;;;;;6275727;28;20037;-44
2023/07/20 01:45:31;;;;;;;0.40;0.40;;;;;;;;;;6276687;28;20037;-45
2023/07/20 01:48:33;;;;;;;0.75;0.25;;;23.90;77.30;;;;;;6275684;28;20089;-42
2023/07/20 01:51:37;;;;;;;0.28;0.28;;;;;;;;;;6273617;28;20040;-45
2023/07/20 01:54:39;;;;;;;0.22;0.20;;;;;;;;;;6275267;28;20063;-44
2023/07/20 01:57:41;;;;;;;0.30;0.30;;;;;;;;;;6274369;28;20043;-42
2023/07/20 02:00:43;;;;;;;0.40;0.30;;;;;;;;;;6273953;28;20033;-45
2023/07/20 02:03:47;;;;;;;0.45;0.40;;;24.00;78.00;;;;;;6274156;28;20044;-46
2023/07/20 02:06:49;;;;;;;0.47;0.30;;;;;;;;;;6274149;28;20411;-43
2023/07/20 02:09:50;;;;;;;1.05;0.20;;;;;;;;;;6272786;28;20114;-48
2023/07/20 02:12:53;;;;;;;0.65;0.20;;;;;;;;;;6271445;28;20068;-46
2023/07/20 02:15:54;;;;;;;0.20;0.20;;;;;;;;;;6271717;28;20583;-44
2023/07/20 02:18:59;;;;;;;0.75;0.43;;;24.00;78.10;;;;;;6273619;28;20036;-44
2023/07/20 02:22:00;;;;;;;0.20;0.20;;;;;;;;;;6274584;28;20075;-47
2023/07/20 02:25:04;;;;;;;0.28;0.20;;;;;;;;;;6274203;28;20036;-42
2023/07/20 02:28:10;;;;;;;0.40;0.40;;;;;;;;;;6272253;28;20075;-46
2023/07/20 02:31:12;;;;;;;1.20;0.43;;;;;;;;;;6272982;28;20554;-43
2023/07/20 02:34:14;;;;;;;0.60;0.50;;;23.90;77.20;;;;;;6272346;28;20050;-44
2023/07/20 02:37:18;;;;;;;0.63;0.30;;;;;;;;;;6273363;28;20036;-47
2023/07/20 02:40:20;;;;;;;0.20;0.20;;;;;;;;;;6272277;28;20380;-42
2023/07/20 02:43:22;;;;;;;0.40;0.30;;;;;;;;;;6271563;28;20445;-44
2023/07/20 02:46:24;;;;;;;0.55;0.30;;;;;;;;;;6272172;28;20040;-41
2023/07/20 02:49:28;;;;;;;0.55;0.30;;;24.60;79.00;;;;;;6273273;28;20041;-44
2023/07/20 02:52:33;;;;;;;0.30;0.30;;;;;;;;;;6257442;28;20032;-45
2023/07/20 02:55:34;;;;;;;0.43;0.20;;;;;;;;;;6273496;28;20041;-43
2023/07/20 02:58:37;;;;;;;0.40;0.22;;;;;;;;;;6273616;28;20435;-47
2023/07/20 03:01:39;;;;;;;0.65;0.30;;;;;;;;;;6272444;28;20044;-47
2023/07/20 03:04:41;;;;;;;0.47;0.38;;;23.80;77.00;;;;;;6272706;28;20049;-42
2023/07/20 03:07:43;;;;;;;0.40;0.30;;;;;;;;;;6273411;28;20043;-42
2023/07/20 03:10:47;;;;;;;0.40;0.20;;;;;;;;;;6273738;28;20044;-42
2023/07/20 03:13:49;;;;;;;0.73;0.35;;;;;;;;;;6271740;28;20180;-42
2023/07/20 03:16:52;;;;;;;0.52;0.40;;;;;;;;;;6273291;28;20037;-44
2023/07/20 03:19:54;;;;;;;0.32;0.30;;;23.90;77.80;;;;;;6272128;28;20043;-44
2023/07/20 03:22:56;;;;;;;0.32;0.30;;;;;;;;;;6270401;28;20045;-44
2023/07/20 03:25:58;;;;;;;0.38;0.30;;;;;;;;;;6273098;28;20367;-44
2023/07/20 03:29:00;;;;;;;0.35;0.30;;;;;;;;;;6271657;28;20048;-43
2023/07/20 03:32:02;;;;;;;0.50;0.30;;;;;;;;;;6275199;28;20040;-41
2023/07/20 03:35:07;;;;;;;0.32;0.30;;;23.90;77.90;;;;;;6275239;28;20427;-44
2023/07/20 03:38:09;;;;;;;0.45;0.25;;;;;;;;;;6272786;28;20060;-44
2023/07/20 03:41:16;;;;;;;0.50;0.28;;;23.80;77.60;;;;;;6274785;28;20119;-44
2023/07/20 03:44:17;;;;;;;0.40;0.30;;;;;;;;;;6272919;28;20179;-56
2023/07/20 03:47:19;;;;;;;0.30;0.25;;;;;;;;;;6271994;28;20037;-56
2023/07/20 03:50:22;;;;;;;0.40;0.30;;;23.70;77.00;;;;;;6272449;28;20037;-54
2023/07/20 03:53:27;;;;;;;0.30;0.30;;;;;;;;;;6273314;28;20048;-55
2023/07/20 03:56:31;;;;;;;0.40;0.40;;;;;;;;;;6271107;28;20178;-56
2023/07/20 03:59:33;;;;;;;0.35;0.20;;;;;;;;;;6271078;28;20040;-55
2023/07/20 04:02:35;;;;;;;0.30;0.30;;;;;;;;;;6271440;28;20089;-54
2023/07/20 04:05:37;;;;;;;0.35;0.20;;;23.70;76.50;;;;;;6273524;28;20120;-54
2023/07/20 04:08:40;;;;;;;0.20;0.20;;;;;;;;;;6271151;28;20094;-56
2023/07/20 04:11:42;;;;;;;0.35;0.30;;;;;;;;;;6272039;28;20040;-56
2023/07/20 04:14:44;;;;;;;0.30;0.30;;;;;;;;;;6272968;28;20641;-56
2023/07/20 04:17:46;;;;;;;0.28;0.28;;;;;;;;;;6272977;28;20041;-55
2023/07/20 04:20:48;;;;;;;0.30;0.20;;;23.60;76.70;;;;;;6271653;28;20037;-56
2023/07/20 04:23:50;;;;;;;0.30;0.25;;;;;;;;;;6270493;28;20044;-56
2023/07/20 04:26:54;;;;;;;0.50;0.30;;;;;;;;;;6271331;28;20040;-56
2023/07/20 04:29:56;;;;;;;0.52;0.30;;;;;;;;;;6270773;28;20657;-56
2023/07/20 04:32:58;;;;;;;0.40;0.30;;;;;;;;;;6270095;28;20514;-52
2023/07/20 04:36:03;;;;;;;0.57;0.30;;;23.60;76.80;;;;;;6269779;28;20411;-56
2023/07/20 04:39:08;;;;;;;0.88;0.40;;;;;;;;;;6269595;28;20339;-55
2023/07/20 04:42:26;;;;;;;0.20;0.20;;;;;;;;;;6270153;28;20045;-56
2023/07/20 04:45:29;;;;;;;0.32;0.30;;;;;;;;;;6270027;28;20039;-54
2023/07/20 04:48:31;;;;;;;0.50;0.30;;;;;;;;;;6270457;28;20141;-55
2023/07/20 04:51:34;;;;;;;0.40;0.40;;;23.50;76.30;;;;;;6270567;28;20036;-55
2023/07/20 04:54:36;;;;;;;0.50;0.40;;;;;;;;;;6270509;28;20040;-54
2023/07/20 04:57:38;;;;;;;0.30;0.30;;;;;;;;;;6270719;28;20158;-56
2023/07/20 05:00:41;;;;;;;0.43;0.40;;;;;;;;;;6269481;28;20428;-55
2023/07/20 05:03:44;;;;;;;0.47;0.38;;;;;;;;;;6258420;28;20040;-56
2023/07/20 05:06:48;;;;;;;0.40;0.35;;;23.50;75.80;;;;;;6253123;28;20044;-55
2023/07/20 05:09:49;;;;;;;0.30;0.30;;;;;;;;;;6255358;28;20410;-56
2023/07/20 05:12:51;;;;;;;0.40;0.30;;;;;;;;;;6262682;28;20119;-56
2023/07/20 05:15:53;;;;;;;0.57;0.35;;;;;;;;;;6261472;28;20552;-55
2023/07/20 05:18:57;;;;;;;0.28;0.28;;;;;;;;;;6263944;28;20591;-56
2023/07/20 05:21:59;;;;;;;0.77;0.73;;;23.40;73.50;;;;;;6260757;28;20048;-54
2023/07/20 05:25:01;;;;;;;0.52;0.30;;;;;;;;;;6261299;28;20028;-56
2023/07/20 05:28:06;;;;;;;0.35;0.30;;;;;;;;;;6261340;28;20313;-56
2023/07/20 05:31:08;;;;;;;0.20;0.20;;;;;;;;;;6261320;28;20044;-55
2023/07/20 05:34:10;;;;;;;0.40;0.32;;;;;;;;;;6260510;28;20115;-55
2023/07/20 05:37:12;;;;;;;0.47;0.40;;;23.40;75.40;;;;;;6265425;28;20040;-55
2023/07/20 05:40:18;;;;;;;0.63;0.40;;;;;;;;;;6262817;28;20043;-56
2023/07/20 05:43:20;;;;;;;0.30;0.20;;;;;;;;;;6264241;28;20033;-43
2023/07/20 05:46:24;;;;;;;0.38;0.38;;;;;;;;;;6263291;28;20411;-46
2023/07/20 05:49:26;;;;;;;1.17;0.65;;;;;;;;;;6263005;28;20070;-40
2023/07/20 05:52:28;;;;;;;0.80;0.50;;;23.50;74.90;;;;;;6265043;28;20411;-47
2023/07/20 05:55:30;;;;;;;0.30;0.20;;;;;;;;;;6261621;28;20811;-43
2023/07/20 05:58:34;;;;;;;0.68;0.30;;;23.40;76.00;;;;;;6265558;28;20036;-41
2023/07/20 06:01:36;;;;;;;0.75;0.35;;;;;;;;;;6263243;28;20049;-42
2023/07/20 06:04:39;;;;;;;0.30;0.30;;;23.60;75.60;;;;;;6263200;28;20033;-47
2023/07/20 06:07:41;;;;;;;0.95;0.63;;;23.50;75.50;;;;;;6267422;28;20036;-41
2023/07/20 06:10:43;;;;;;;0.65;0.30;;;;;;;;;;6263758;28;20040;-42
2023/07/20 06:13:47;;;;;;;0.40;0.32;;;;;;;;;;6268782;28;21081;-43
2023/07/20 06:16:49;;;;;;;0.40;0.40;;;;;;;;;;6268652;28;20036;-44
2023/07/20 06:19:51;;;;;;;0.38;0.32;;;;;;;;;;6271484;28;20036;-43
2023/07/20 06:22:53;;;;;;;0.40;0.40;;;23.50;74.00;;;;;;6264533;28;20438;-43
2023/07/20 06:25:55;;;;;;;0.45;0.35;;;;;;;;;;6268392;28;20036;-46
2023/07/20 06:28:57;;;;;;;0.68;0.40;;;;;;;;;;6271124;28;20052;-41
2023/07/20 06:32:01;;;;;;;0.80;0.38;;;;;;;;;;6269310;28;20051;-41
2023/07/20 06:35:03;;;;;;;0.70;0.20;;;;;;;;;;6268624;28;20635;-43
2023/07/20 06:38:05;;;;;;;0.90;0.40;;;23.60;75.00;;;;;;6264499;28;20090;-37
2023/07/20 06:41:10;;;;;;;0.73;0.40;;;;;;;;;;6267118;28;20501;-36
2023/07/20 06:44:15;;;;;;;1.05;0.43;;;;;;;;;;6264363;28;20128;-39
2023/07/20 06:47:17;;;;;;;1.10;0.30;;;;;;;;;;6265320;28;20068;-41
2023/07/20 06:50:19;;;;;;;0.70;0.32;;;;;;;;;;6257200;28;20593;-40
2023/07/20 06:53:24;;;;;;;0.40;0.40;;;23.60;75.40;;;;;;6261697;28;20036;-42
2023/07/20 06:56:28;;;;;;;0.40;0.32;;;;;;;;;;6257858;28;20040;-42
2023/07/20 06:59:32;;;;;;;0.90;0.30;;;;;;;;;;6254442;28;20549;-44
2023/07/20 07:02:34;;;;;;;0.60;0.40;;;;;;;;;;6252569;28;20112;-40
2023/07/20 07:05:37;;;;;;;0.98;0.50;;;23.50;75.20;;;;;;6245111;28;20037;-41
2023/07/20 07:08:40;;;;;;;0.30;0.30;;;23.60;76.00;;;;;;6246053;28;20912;-39
2023/07/20 07:11:42;;;;;;;3.63;0.80;;;;;;;;;;6244340;28;20037;-38
2023/07/20 07:14:44;;;;;;;3.20;1.10;;;;;;;;;;6252665;28;20090;-40
2023/07/20 07:17:46;;;;;;;3.65;1.60;;;;;;;;;;6253038;28;20040;-41
2023/07/20 07:20:52;;;;;;;4.45;1.85;;;22.50;76.00;;;;;;6249359;28;20255;-40
2023/07/20 07:23:57;;;;;;;2.53;1.30;;;23.50;77.20;;;;;;6247398;28;20514;-41
2023/07/20 07:27:00;;;;;;;3.50;1.30;;;23.70;73.60;;;;;;6253992;28;20037;-42
2023/07/20 07:30:02;;;;;;;2.42;0.98;;;;;;;;;;6254328;28;20268;-42
2023/07/20 07:33:05;;;;;;;1.08;0.93;;;;;;;;;;6249366;28;20663;-40
2023/07/20 07:36:07;;;;;;;1.92;0.90;;;;;;;;;;6252925;28;20036;-41
2023/07/20 07:39:10;;;;;;;2.20;1.00;;;23.60;77.50;;;;;;6252344;28;20159;-40
2023/07/20 07:42:15;;;;;;;1.65;1.00;;;;;;;;;;6249610;28;20032;-44
2023/07/20 07:45:19;;;;;;;1.85;0.80;;;;;;;;;;6251397;28;20048;-38
2023/07/20 07:48:22;;;;;;;1.30;0.88;;;;;;;;;;6252450;28;20039;-41
2023/07/20 07:51:23;;;;;;;2.75;0.65;;;;;;;;;;6247606;28;20048;-40
2023/07/20 07:54:26;;;;;;;1.13;0.60;;;23.70;77.50;;;;;;6253196;28;20059;-43
2023/07/20 07:57:30;;;;;;;1.73;0.70;;;;;;;;;;6244720;28;20539;-41
2023/07/20 08:00:32;;;;;;;1.13;0.77;;;;;;;;;;6251543;28;20040;-41
2023/07/20 08:03:36;;;;;;;2.55;0.80;;;;;;;;;;6245397;28;20064;-41
2023/07/20 08:06:38;;;;;;;2.58;0.90;;;;;;;;;;6249272;28;20131;-40
2023/07/20 08:09:43;;;;;;;1.27;1.00;;;23.70;77.40;;;;;;6246208;28;20040;-42
2023/07/20 08:12:48;;;;;;;3.13;1.13;;;;;;;;;;6250465;28;20036;-41
2023/07/20 08:15:51;;;;;;;1.65;0.88;;;23.70;78.20;;;;;;6246108;28;20315;-39
2023/07/20 08:18:53;;;;;;;3.05;1.10;;;;;;;;;;6247913;28;20602;-37
2023/07/20 08:21:55;;;;;;;1.17;0.70;;;;;;;;;;6245844;28;20032;-45
2023/07/20 08:24:58;;;;;;;2.65;1.00;;;23.70;77.90;;;;;;6241909;28;20053;-39
2023/07/20 08:28:00;;;;;;;1.33;0.70;;;;;;;;;;6249068;28;20045;-41
2023/07/20 08:31:02;;;;;;;1.00;0.80;;;;;;;;;;6249983;28;20490;-39
2023/07/20 08:34:05;;;;;;;2.35;0.90;;;;;;;;;;6248313;28;20040;-39
2023/07/20 08:37:22;;;;;;;1.58;0.70;;;;;;;;;;6244535;28;20123;-41
2023/07/20 08:40:24;;;;;;;1.77;0.80;;;23.70;77.60;;;;;;6243562;28;20039;-44
2023/07/20 08:43:37;;;;;;;2.58;0.90;;;23.80;78.00;;;;;;6243726;28;20600;-45
2023/07/20 08:46:39;;;;;;;1.30;0.60;;;;;;;;;;6246392;28;20043;-44
2023/07/20 08:49:43;;;;;;;0.98;0.70;;;;;;;;;;6243821;28;20036;-41
2023/07/20 08:52:45;;;;;;;0.50;0.47;;;;;;;;;;6244518;28;20032;-46
2023/07/20 08:55:50;;;;;;;1.50;0.60;;;23.80;77.30;;;;;;6248640;28;20044;-41
2023/07/20 08:58:52;;;;;;;2.45;0.50;;;;;;;;;;6232343;28;20036;-40
2023/07/20 09:01:56;;;;;;;0.80;0.52;;;24.00;77.80;;;;;;6222128;28;20048;-40
2023/07/20 09:04:59;;;;;;;0.60;0.40;;;;;;;;;;6218219;28;20111;-43
2023/07/20 09:08:02;;;;;;;0.55;0.50;;;;;;;;;;6222085;28;20029;-42
2023/07/20 09:11:05;;;;;;;0.40;0.40;;;23.90;77.10;;;;;;6218193;28;20052;-42
2023/07/20 09:14:07;;;;;;;0.75;0.50;;;24.00;75.90;;;;;;6221420;28;20096;-46
2023/07/20 09:17:15;;;;;;;3.35;0.70;;;24.00;78.30;;;;;;6223140;28;20045;-49
2023/07/20 09:20:20;;;;;;;2.22;0.75;;;;;;;;;;6225786;28;20293;-48
2023/07/20 09:23:31;;;;;;;1.25;0.60;;;24.20;78.00;;;;;;6220325;28;20052;-47
2023/07/20 09:26:44;;;;;;;1.27;0.60;;;24.00;77.80;;;;;;6221673;28;20440;-51
2023/07/20 09:29:49;;;;;;;0.80;0.60;;;24.20;77.60;;;;;;6221006;28;20044;-46
2023/07/20 09:32:54;;;;;;;0.93;0.55;;;;;;;;;;6202455;28;20071;-51
2023/07/20 09:36:05;;;;;;;0.88;0.57;;;24.10;77.70;;;;;;6224878;28;20120;-47
2023/07/20 09:39:27;;;;;;;1.53;0.90;;;;;;;;;;6222412;28;20124;-46
2023/07/20 09:42:32;;;;;;;0.70;0.50;;;24.30;77.00;;;;;;6222177;28;20302;-48
2023/07/20 09:45:40;;;;;;;0.70;0.60;;;24.30;77.30;;;;;;6225341;28;20037;-49
2023/07/20 09:49:00;;;;;;;2.30;0.80;;;;;;;;;;6231200;28;20045;-52
2023/07/20 09:52:05;;;;;;;0.90;0.55;;;;;;;;;;6247579;28;20045;-51
2023/07/20 09:55:08;;;;;;;0.65;0.43;;;24.30;74.60;;;;;;6230987;28;20061;-48
2023/07/20 09:58:11;;;;;;;1.10;0.40;;;24.40;76.70;;;;;;6223101;28;20041;-46
2023/07/20 10:01:16;;;;;;;1.02;0.40;;;24.30;75.80;;;;;;6212483;28;20822;-44
2023/07/20 10:04:21;;;;;;;0.75;0.30;;;24.30;75.40;;;;;;6219574;28;20131;-45
2023/07/20 10:07:27;;;;;;;0.40;0.22;;;24.40;75.40;;;;;;6218447;28;20044;-48
2023/07/20 10:10:31;;;;;;;0.40;0.30;;;24.40;76.10;;;;;;6221440;28;20049;-45
2023/07/20 10:13:37;;;;;;;0.52;0.30;;;24.80;75.80;;;;;;6203982;28;20859;-42
2023/07/20 10:16:47;;;;;;;1.40;0.40;;;24.10;75.60;;;;;;6201375;28;20680;-44
2023/07/20 10:19:56;;;;;;;1.52;0.50;;;24.40;77.10;;;;;;6198735;28;20037;-43
2023/07/20 10:22:58;;;;;;;0.98;0.40;;;;;;;;;;6199911;28;20037;-40
2023/07/20 10:26:05;;;;;;;0.50;0.30;;;24.50;74.30;;;;;;6202488;28;20037;-43
2023/07/20 10:29:08;;;;;;;0.60;0.40;;;24.60;75.50;;;;;;6206932;28;20041;-43
2023/07/20 10:32:10;;;;;;;0.50;0.50;;;;;;;;;;6205395;28;20029;-41
2023/07/20 10:35:14;;;;;;;0.40;0.40;;;23.80;73.20;;;;;;6204060;28;21094;-42
2023/07/20 10:38:16;;;;;;;0.45;0.40;;;;;;;;;;6185150;28;20744;-42
2023/07/20 10:41:24;;;;;;;0.50;0.35;;;24.50;74.30;;;;;;6209897;28;20033;-41
2023/07/20 10:44:26;;;;;;;0.45;0.30;;;24.50;72.70;;;;;;6207828;28;20044;-42
2023/07/20 10:47:28;;;;;;;0.47;0.30;;;;;;;;;;6209738;28;20033;-41
2023/07/20 10:50:30;;;;;;;0.52;0.30;;;;;;;;;;6215617;28;20061;-44
2023/07/20 10:53:34;;;;;;;0.35;0.35;;;;;;;;;;6212136;28;20037;-40
2023/07/20 10:56:38;;;;;;;0.50;0.30;;;;;;;;;;6215832;28;20040;-40
2023/07/20 10:59:40;;;;;;;0.40;0.30;;;24.40;72.80;;;;;;6215441;28;20044;-44
2023/07/20 11:02:46;;;;;;;0.30;0.30;;;24.60;72.90;;;;;;6218924;28;20095;-41
2023/07/20 11:05:55;;;;;;;0.50;0.40;;;24.50;72.70;;;;;;6223374;28;20041;-43
2023/07/20 11:09:04;;;;;;;1.13;0.50;;;24.70;71.90;;;;;;6221313;28;20045;-45
2023/07/20 11:12:10;;;;;;;0.52;0.40;;;24.60;69.60;;;;;;6216444;28;20037;-42
2023/07/20 11:15:13;;;;;;;0.40;0.30;;;24.60;71.20;;;;;;6218174;28;20067;-43
2023/07/20 11:18:15;;;;;;;0.63;0.30;;;24.70;69.40;;;;;;6222003;28;20037;-41
2023/07/20 11:21:17;;;;;;;0.45;0.40;;;;;;;;;;6215305;28;20045;-42
2023/07/20 11:24:19;;;;;;;1.95;0.40;;;;;;;;;;6218439;28;20607;-42
2023/07/20 11:27:22;;;;;;;0.45;0.32;;;;;;;;;;6215139;28;20033;-40
2023/07/20 11:30:25;;;;;;;0.70;0.47;;;24.70;71.00;;;;;;6220205;28;20037;-41
2023/07/20 11:33:27;;;;;;;0.70;0.40;;;;;;;;;;6211036;28;20124;-42
2023/07/20 11:36:29;;;;;;;0.40;0.40;;;;;;;;;;6211685;28;20040;-42
2023/07/20 11:39:34;;;;;;;0.20;0.20;;;;;;;;;;6213814;28;20072;-42
2023/07/20 11:42:36;;;;;;;0.90;0.57;;;;;;;;;;6220597;28;20037;-43
2023/07/20 11:45:41;;;;;;;2.35;0.60;;;24.70;70.00;;;;;;6210899;28;20040;-41
2023/07/20 11:48:43;;;;;;;1.27;0.60;;;;;;;;;;6220570;28;20029;-47
2023/07/20 11:51:45;;;;;;;2.00;0.73;;;;;;;;;;6221843;28;20108;-47
2023/07/20 11:54:49;;;;;;;1.65;0.70;;;;;;;;;;6208909;28;20108;-43
2023/07/20 11:58:02;;;;;;;0.75;0.60;;;24.70;68.60;;;;;;6208939;28;20041;-45
2023/07/20 12:01:04;;;;;;;1.20;0.60;;;24.80;67.60;;;;;;6211059;28;20037;-43
2023/07/20 12:04:06;;;;;;;1.08;0.60;;;;;;;;;;6207313;28;20033;-44
2023/07/20 12:07:08;;;;;;;1.70;0.68;;;;;;;;;;6208925;28;20037;-43
2023/07/20 12:10:13;;;;;;;1.23;0.60;;;24.70;67.40;;;;;;6212029;28;20048;-43
2023/07/20 12:13:17;;;;;;;1.35;0.50;;;;;;;;;;6219467;28;20158;-47
2023/07/20 12:16:20;;;;;;;0.85;0.60;;;24.80;68.30;;;;;;6224860;28;20106;-42
2023/07/20 12:19:25;;;;;;;7.20;1.40;;;24.70;68.20;;;;;;6225239;28;20045;-44
2023/07/20 12:22:27;;;;;;;0.43;0.40;;;;;;;;;;6217407;28;20583;-45
2023/07/20 12:25:39;;;;;;;0.30;0.30;;;24.80;68.40;;;;;;6224570;28;20075;-43
2023/07/20 12:28:42;;;;;;;1.13;0.90;;;25.10;68.30;;;;;;6219477;28;20130;-49
2023/07/20 12:31:45;;;;;;;1.25;0.65;;;24.80;67.20;;;;;;6217443;28;20033;-44
2023/07/20 12:34:47;;;;;;;0.55;0.38;;;;;;;;;;6217622;28;20044;-44
2023/07/20 12:37:50;;;;;;;0.70;0.57;;;;;;;;;;6219783;28;20116;-46
2023/07/20 12:40:54;;;;;;;0.45;0.38;;;;;;;;;;6213405;28;20044;-42
2023/07/20 12:43:58;;;;;;;1.50;0.60;;;;;;;;;;6214003;28;20033;-45
2023/07/20 12:47:01;;;;;;;0.63;0.50;;;24.70;67.10;;;;;;6210255;28;20233;-42
2023/07/20 12:50:06;;;;;;;0.70;0.47;;;;;;;;;;6214802;28;20047;-48
2023/07/20 12:53:07;;;;;;;0.80;0.52;;;24.60;65.60;;;;;;6208293;28;20063;-43
2023/07/20 12:56:09;;;;;;;1.05;0.40;;;;;;;;;;6213469;28;20102;-51
2023/07/20 12:59:14;;;;;;;0.68;0.50;;;;;;;;;;6211033;28;20729;-52
2023/07/20 13:02:17;;;;;;;0.60;0.40;;;24.60;66.00;;;;;;6214801;28;20037;-55
2023/07/20 13:05:19;;;;;;;0.40;0.35;;;;;;;;;;6213124;28;20025;-53
2023/07/20 13:08:40;;;;;;;1.13;0.25;;;;;;;;;;6209597;28;20910;-52
2023/07/20 13:11:43;;;;;;;0.40;0.40;;;;;;;;;;6216942;28;20048;-46
2023/07/20 13:14:45;;;;;;;0.63;0.47;;;;;;;;;;6208354;28;20049;-50
2023/07/20 13:17:47;;;;;;;0.57;0.30;;;24.60;68.00;;;;;;6214267;28;20831;-49
2023/07/20 13:20:49;;;;;;;0.55;0.40;;;;;;;;;;6221718;28;20043;-50
2023/07/20 13:23:51;;;;;;;0.20;0.20;;;;;;;;;;6225482;28;20111;-49
2023/07/20 13:26:52;;;;;;;1.17;0.30;;;;;;;;;;6213842;28;20063;-47
2023/07/20 13:29:55;;;;;;;1.02;0.20;;;;;;;;;;6219138;28;20150;-48
2023/07/20 13:32:57;;;;;;;0.30;0.30;;;24.50;67.10;;;;;;6213236;28;20595;-49
2023/07/20 13:35:59;;;;;;;0.57;0.20;;;;;;;;;;6218905;28;20112;-49
2023/07/20 13:39:05;;;;;;;1.17;0.28;;;24.60;63.70;;;;;;6224023;28;20041;-50
2023/07/20 13:42:10;;;;;;;0.50;0.35;;;;;;;;;;6221819;28;20044;-46
2023/07/20 13:45:12;;;;;;;1.95;0.40;;;;;;;;;;6225138;28;20071;-50
2023/07/20 13:48:17;;;;;;;0.28;0.25;;;24.50;68.00;;;;;;6222910;28;20037;-46
2023/07/20 13:51:23;;;;;;;0.75;0.40;;;24.40;67.60;;;;;;6227584;28;20076;-45
2023/07/20 13:54:29;;;;;;;0.30;0.30;;;;;;;;;;6220121;28;20645;-43
2023/07/20 13:57:31;;;;;;;0.55;0.30;;;;;;;;;;6218933;28;20044;-48
2023/07/20 14:00:34;;;;;;;0.45;0.40;;;;;;;;;;6214678;28;20052;-45
2023/07/20 14:03:37;;;;;;;0.32;0.30;;;24.50;67.80;;;;;;6212234;28;20044;-47
2023/07/20 14:06:39;;;;;;;0.55;0.38;;;;;;;;;;6214759;28;20738;-49
2023/07/20 14:09:41;;;;;;;0.40;0.30;;;;;;;;;;6224030;28;20045;-45
2023/07/20 14:12:46;;;;;;;0.47;0.32;;;;;;;;;;6217713;28;20048;-46
2023/07/20 14:15:50;;;;;;;0.30;0.25;;;;;;;;;;6224005;28;20454;-48
2023/07/20 14:18:52;;;;;;;3.30;0.38;;;24.70;67.60;;;;;;6221424;28;20037;-49
2023/07/20 14:21:55;;;;;;;0.70;0.32;;;;;;;;;;6234065;28;20057;-46
2023/07/20 14:24:57;;;;;;;0.52;0.30;;;;;;;;;;6228985;28;20622;-40
2023/07/20 14:28:01;;;;;;;0.30;0.28;;;;;;;;;;6213148;28;20064;-48
2023/07/20 14:31:03;;;;;;;0.40;0.30;;;;;;;;;;6234176;28;20049;-48
2023/07/20 14:34:05;;;;;;;0.55;0.40;;;24.70;68.50;;;;;;6227343;28;20061;-48
2023/07/20 14:37:07;;;;;;;0.20;0.20;;;;;;;;;;6235720;28;20044;-49
2023/07/20 14:40:11;;;;;;;0.60;0.30;;;24.70;69.50;;;;;;6225701;28;20037;-48
2023/07/20 14:43:14;;;;;;;0.35;0.30;;;;;;;;;;6233700;28;20083;-50
2023/07/20 14:46:16;;;;;;;0.20;0.20;;;;;;;;;;6230675;28;20110;-47
2023/07/20 14:49:20;;;;;;;0.45;0.38;;;24.80;68.90;;;;;;6223873;28;20037;-49
2023/07/20 14:52:23;;;;;;;0.50;0.30;;;;;;;;;;6232220;28;20041;-47
2023/07/20 14:55:30;;;;;;;0.40;0.32;;;;;;;;;;6222298;28;20056;-48
2023/07/20 14:58:32;;;;;;;0.40;0.30;;;;;;;;;;6228717;28;20052;-47
2023/07/20 15:01:37;;;;;;;0.35;0.30;;;;;;;;;;6225840;28;20041;-49
2023/07/20 15:04:46;;;;;;;1.48;0.20;;;24.80;70.60;;;;;;6221610;28;20459;-44
2023/07/20 15:07:48;;;;;;;0.30;0.25;;;;;;;;;;6228562;28;20128;-51
2023/07/20 15:10:50;;;;;;;0.50;0.30;;;;;;;;;;6210393;28;20056;-50
2023/07/20 15:13:52;;;;;;;0.40;0.30;;;;;;;;;;6213870;28;20091;-50
2023/07/20 15:16:54;;;;;;;0.28;0.28;;;;;;;;;;6214133;28;20041;-49
2023/07/20 15:19:56;;;;;;;0.35;0.35;;;24.90;69.40;;;;;;6215691;28;20769;-47
2023/07/20 15:22:58;;;;;;;0.40;0.30;;;;;;;;;;6221600;28;20051;-50
2023/07/20 15:26:00;;;;;;;0.90;0.30;;;;;;;;;;6219623;28;20044;-42
2023/07/20 15:29:02;;;;;;;0.30;0.30;;;;;;;;;;6217235;28;20060;-42
2023/07/20 15:32:04;;;;;;;0.35;0.30;;;;;;;;;;6216828;28;20107;-45
2023/07/20 15:35:08;;;;;;;0.20;0.20;;;24.90;70.40;;;;;;6214814;28;20103;-51
2023/07/20 15:38:10;;;;;;;0.57;0.25;;;;;;;;;;6212139;28;20041;-42
2023/07/20 15:41:13;;;;;;;0.90;0.25;;;;;;;;;;6217050;28;20106;-48
2023/07/20 15:44:15;;;;;;;0.30;0.30;;;;;;;;;;6222061;28;20122;-45
2023/07/20 15:47:17;;;;;;;0.22;0.22;;;;;;;;;;6211151;28;20040;-47
2023/07/20 15:50:21;;;;;;;0.30;0.30;;;25.00;71.40;;;;;;6215956;28;20045;-47
2023/07/20 15:53:24;;;;;;;0.20;0.20;;;;;;;;;;6224805;28;20044;-45
2023/07/20 15:56:26;;;;;;;0.57;0.28;;;;;;;;;;6230167;28;20033;-48
2023/07/20 15:59:28;;;;;;;0.30;0.20;;;;;;;;;;6237072;28;20045;-44
2023/07/20 16:02:30;;;;;;;0.28;0.20;;;;;;;;;;6226377;28;20551;-47
2023/07/20 16:05:34;;;;;;;0.32;0.30;;;24.90;70.90;;;;;;6227717;28;20131;-49
2023/07/20 16:08:36;;;;;;;0.20;0.20;;;;;;;;;;6223934;28;20041;-48
2023/07/20 16:11:38;;;;;;;0.20;0.20;;;;;;;;;;6223136;28;20052;-48
2023/07/20 16:14:40;;;;;;;0.20;0.20;;;;;;;;;;6228716;28;20117;-46
2023/07/20 16:17:47;;;;;;;0.20;0.20;;;;;;;;;;6227850;28;20122;-46
2023/07/20 16:20:49;;;;;;;0.90;0.20;;;24.90;70.90;;;;;;6223267;28;20072;-43
2023/07/20 16:23:51;;;;;;;0.52;0.30;;;;;;;;;;6232359;28;20037;-50
2023/07/20 16:26:53;;;;;;;0.30;0.20;;;;;;;;;;6236332;28;20041;-45
2023/07/20 16:29:55;;;;;;;0.30;0.30;;;;;;;;;;6233932;28;20048;-42
2023/07/20 16:32:57;;;;;;;0.45;0.30;;;;;;;;;;6237128;28;20033;-42
2023/07/20 16:36:02;;;;;;;0.22;0.20;;;25.00;70.10;;;;;;6241252;28;20044;-42
2023/07/20 16:39:04;;;;;;;0.30;0.20;;;;;;;;;;6238221;28;20041;-41
2023/07/20 16:42:09;;;;;;;0.20;0.10;;;;;;;;;;6241624;28;20059;-41
2023/07/20 16:45:13;;;;;;;0.50;0.20;;;;;;;;;;6242275;28;20044;-41
2023/07/20 16:48:15;;;;;;;1.38;0.30;;;;;;;;;;6242043;28;20041;-39
2023/07/20 16:51:21;;;;;;;0.20;0.20;;;25.10;70.10;;;;;;6240435;28;20052;-39
2023/07/20 16:54:23;;;;;;;0.10;0.10;;;;;;;;;;6235698;28;20033;-41
2023/07/20 16:57:25;;;;;;;0.30;0.20;;;;;;;;;;6237680;28;20068;-40
2023/07/20 17:00:27;;;;;;;0.20;0.17;;;;;;;;;;6223461;28;20036;-39
2023/07/20 17:03:29;;;;;;;0.20;0.20;;;;;;;;;;6226636;28;20588;-40
2023/07/20 17:06:31;;;;;;;0.30;0.30;;;25.20;69.70;;;;;;6213092;28;20055;-40
2023/07/20 17:09:34;;;;;;;0.20;0.15;;;25.10;71.40;;;;;;6227639;28;20085;-40
2023/07/20 17:12:38;;;;;;;0.20;0.20;;;25.20;70.90;;;;;;6238825;28;20044;-40
2023/07/20 17:15:41;;;;;;;1.17;0.30;;;;;;;;;;6237834;28;20091;-42
2023/07/20 17:18:43;;;;;;;0.22;0.20;;;;;;;;;;6242952;28;20037;-43
2023/07/20 17:21:45;;;;;;;0.10;0.10;;;25.20;71.30;;;;;;6239945;28;20424;-40
2023/07/20 17:24:50;;;;;;;0.25;0.20;;;;;;;;;;6217114;28;20053;-40